sensor_id;sensor_type;location;lat;lon;timestamp;P1;durP1;ratioP1;P2;durP2;ratioP2
83814;SDS011;73829;53.826;-3.034;2024-02-15T00:01:19;2.60;;;0.70;;
83814;SDS011;73829;53.826;-3.034;2024-02-15T00:03:50;3.00;;;0.90;;
83814;SDS011;73829;53.826;-3.034;2024-02-15T00:06:21;3.40;;;1.00;;
83814;SDS011;73829;53.826;-3.034;2024-02-15T00:08:52;2.80;;;0.80;;
83814;SDS011;73829;53.826;-3.034;2024-02-15T00:11:23;3.60;;;1.00;;
83814;SDS011;73829;53.826;-3.034;2024-02-15T00:13:54;3.30;;;0.90;;
83814;SDS011;73829;53.826;-3.034;2024-02-15T00:16:25;2.50;;;0.80;;
83814;SDS011;73829;53.826;-3.034;2024-02-15T00:18:56;2.20;;;0.80;;
83814;SDS011;73829;53.826;-3.034;2024-02-15T00:21:28;2.50;;;0.70;;
83814;SDS011;73829;53.826;-3.034;2024-02-15T00:23:59;2.20;;;0.70;;
83814;SDS011;73829;53.826;-3.034;2024-02-15T00:26:30;2.70;;;0.80;;
83814;SDS011;73829;53.826;-3.034;2024-02-15T00:29:01;2.50;;;0.80;;
83814;SDS011;73829;53.826;-3.034;2024-02-15T00:31:32;2.10;;;0.60;;
83814;SDS011;73829;53.826;-3.034;2024-02-15T00:34:03;3.00;;;0.80;;
83814;SDS011;73829;53.826;-3.034;2024-02-15T00:36:36;2.70;;;0.70;;
83814;SDS011;73829;53.826;-3.034;2024-02-15T00:39:11;1.90;;;0.70;;
83814;SDS011;73829;53.826;-3.034;2024-02-15T00:41:46;1.40;;;0.60;;
83814;SDS011;73829;53.826;-3.034;2024-02-15T00:44:17;1.50;;;0.60;;
83814;SDS011;73829;53.826;-3.034;2024-02-15T00:46:48;2.60;;;0.70;;
83814;SDS011;73829;53.826;-3.034;2024-02-15T00:49:19;2.90;;;0.80;;
83814;SDS011;73829;53.826;-3.034;2024-02-15T00:51:50;2.50;;;0.70;;
83814;SDS011;73829;53.826;-3.034;2024-02-15T00:54:21;3.30;;;0.80;;
83814;SDS011;73829;53.826;-3.034;2024-02-15T00:56:52;2.10;;;0.70;;
83814;SDS011;73829;53.826;-3.034;2024-02-15T00:59:23;2.00;;;0.60;;
83814;SDS011;73829;53.826;-3.034;2024-02-15T01:01:55;1.70;;;0.60;;
83814;SDS011;73829;53.826;-3.034;2024-02-15T01:04:26;2.90;;;0.70;;
83814;SDS011;73829;53.826;-3.034;2024-02-15T01:06:57;1.80;;;0.70;;
83814;SDS011;73829;53.826;-3.034;2024-02-15T01:09:29;2.30;;;0.70;;
83814;SDS011;73829;53.826;-3.034;2024-02-15T01:12:00;2.40;;;0.70;;
83814;SDS011;73829;53.826;-3.034;2024-02-15T01:14:32;2.30;;;0.80;;
83814;SDS011;73829;53.826;-3.034;2024-02-15T01:17:03;2.00;;;0.70;;
83814;SDS011;73829;53.826;-3.034;2024-02-15T01:19:35;2.40;;;0.70;;
83814;SDS011;73829;53.826;-3.034;2024-02-15T01:22:06;2.40;;;0.70;;
83814;SDS011;73829;53.826;-3.034;2024-02-15T01:24:37;2.10;;;0.70;;
83814;SDS011;73829;53.826;-3.034;2024-02-15T01:27:08;2.00;;;0.70;;
83814;SDS011;73829;53.826;-3.034;2024-02-15T01:29:39;2.50;;;0.70;;
83814;SDS011;73829;53.826;-3.034;2024-02-15T01:32:11;2.10;;;0.70;;
83814;SDS011;73829;53.826;-3.034;2024-02-15T01:34:42;1.80;;;0.60;;
83814;SDS011;73829;53.826;-3.034;2024-02-15T01:37:13;2.40;;;0.70;;
83814;SDS011;73829;53.826;-3.034;2024-02-15T01:39:44;2.00;;;0.70;;
83814;SDS011;73829;53.826;-3.034;2024-02-15T01:42:15;1.90;;;0.60;;
83814;SDS011;73829;53.826;-3.034;2024-02-15T01:44:46;3.30;;;0.90;;
83814;SDS011;73829;53.826;-3.034;2024-02-15T01:47:18;1.90;;;0.70;;
83814;SDS011;73829;53.826;-3.034;2024-02-15T01:49:50;3.30;;;0.70;;
83814;SDS011;73829;53.826;-3.034;2024-02-15T01:52:24;2.00;;;0.70;;
83814;SDS011;73829;53.826;-3.034;2024-02-15T01:54:55;1.60;;;0.60;;
83814;SDS011;73829;53.826;-3.034;2024-02-15T01:57:28;1.80;;;0.60;;
83814;SDS011;73829;53.826;-3.034;2024-02-15T01:59:59;1.90;;;0.60;;
83814;SDS011;73829;53.826;-3.034;2024-02-15T02:02:31;2.10;;;0.50;;
83814;SDS011;73829;53.826;-3.034;2024-02-15T02:05:04;2.30;;;0.70;;
83814;SDS011;73829;53.826;-3.034;2024-02-15T02:07:36;1.50;;;0.60;;
83814;SDS011;73829;53.826;-3.034;2024-02-15T02:10:08;2.80;;;0.60;;
83814;SDS011;73829;53.826;-3.034;2024-02-15T02:12:42;2.20;;;0.60;;
83814;SDS011;73829;53.826;-3.034;2024-02-15T02:15:13;1.90;;;0.70;;
83814;SDS011;73829;53.826;-3.034;2024-02-15T02:17:45;1.50;;;0.60;;
83814;SDS011;73829;53.826;-3.034;2024-02-15T02:20:22;2.30;;;0.80;;
83814;SDS011;73829;53.826;-3.034;2024-02-15T02:22:54;1.80;;;0.70;;
83814;SDS011;73829;53.826;-3.034;2024-02-15T02:25:35;2.50;;;0.70;;
83814;SDS011;73829;53.826;-3.034;2024-02-15T02:28:06;1.80;;;0.50;;
83814;SDS011;73829;53.826;-3.034;2024-02-15T02:30:38;2.00;;;0.70;;
83814;SDS011;73829;53.826;-3.034;2024-02-15T02:33:11;2.20;;;0.60;;
83814;SDS011;73829;53.826;-3.034;2024-02-15T02:35:46;2.70;;;0.60;;
83814;SDS011;73829;53.826;-3.034;2024-02-15T02:38:17;1.90;;;0.60;;
83814;SDS011;73829;53.826;-3.034;2024-02-15T02:40:48;1.50;;;0.60;;
83814;SDS011;73829;53.826;-3.034;2024-02-15T02:43:20;1.40;;;0.40;;
83814;SDS011;73829;53.826;-3.034;2024-02-15T02:45:51;1.50;;;0.60;;
83814;SDS011;73829;53.826;-3.034;2024-02-15T02:48:22;1.90;;;0.50;;
83814;SDS011;73829;53.826;-3.034;2024-02-15T02:50:55;1.80;;;0.50;;
83814;SDS011;73829;53.826;-3.034;2024-02-15T02:53:26;2.00;;;0.60;;
83814;SDS011;73829;53.826;-3.034;2024-02-15T02:55:58;2.20;;;0.60;;
83814;SDS011;73829;53.826;-3.034;2024-02-15T02:58:29;1.90;;;0.60;;
83814;SDS011;73829;53.826;-3.034;2024-02-15T03:01:00;2.00;;;0.80;;
83814;SDS011;73829;53.826;-3.034;2024-02-15T03:03:32;2.00;;;0.60;;
83814;SDS011;73829;53.826;-3.034;2024-02-15T03:06:03;2.20;;;0.70;;
83814;SDS011;73829;53.826;-3.034;2024-02-15T03:08:35;1.40;;;0.50;;
83814;SDS011;73829;53.826;-3.034;2024-02-15T03:11:06;1.40;;;0.60;;
83814;SDS011;73829;53.826;-3.034;2024-02-15T03:13:37;2.40;;;0.80;;
83814;SDS011;73829;53.826;-3.034;2024-02-15T03:16:08;2.30;;;0.80;;
83814;SDS011;73829;53.826;-3.034;2024-02-15T03:18:39;1.80;;;0.70;;
83814;SDS011;73829;53.826;-3.034;2024-02-15T03:21:11;1.70;;;0.50;;
83814;SDS011;73829;53.826;-3.034;2024-02-15T03:23:42;1.90;;;0.70;;
83814;SDS011;73829;53.826;-3.034;2024-02-15T03:26:13;1.50;;;0.50;;
83814;SDS011;73829;53.826;-3.034;2024-02-15T03:28:45;2.00;;;0.60;;
83814;SDS011;73829;53.826;-3.034;2024-02-15T03:31:18;1.70;;;0.50;;
83814;SDS011;73829;53.826;-3.034;2024-02-15T03:33:49;1.10;;;0.50;;
83814;SDS011;73829;53.826;-3.034;2024-02-15T03:36:21;2.00;;;0.80;;
83814;SDS011;73829;53.826;-3.034;2024-02-15T03:38:52;2.20;;;0.90;;
83814;SDS011;73829;53.826;-3.034;2024-02-15T03:41:26;1.50;;;0.70;;
83814;SDS011;73829;53.826;-3.034;2024-02-15T03:44:00;2.20;;;0.60;;
83814;SDS011;73829;53.826;-3.034;2024-02-15T03:46:31;2.10;;;0.90;;
83814;SDS011;73829;53.826;-3.034;2024-02-15T03:49:03;1.40;;;0.50;;
83814;SDS011;73829;53.826;-3.034;2024-02-15T03:51:35;1.90;;;0.60;;
83814;SDS011;73829;53.826;-3.034;2024-02-15T03:54:06;1.30;;;0.50;;
83814;SDS011;73829;53.826;-3.034;2024-02-15T03:56:37;2.40;;;0.80;;
83814;SDS011;73829;53.826;-3.034;2024-02-15T03:59:19;1.60;;;0.60;;
83814;SDS011;73829;53.826;-3.034;2024-02-15T04:01:54;1.90;;;0.70;;
83814;SDS011;73829;53.826;-3.034;2024-02-15T04:04:25;1.40;;;0.40;;
83814;SDS011;73829;53.826;-3.034;2024-02-15T04:06:58;1.20;;;0.50;;
83814;SDS011;73829;53.826;-3.034;2024-02-15T04:09:29;1.60;;;0.50;;
83814;SDS011;73829;53.826;-3.034;2024-02-15T04:12:00;2.30;;;0.60;;
83814;SDS011;73829;53.826;-3.034;2024-02-15T04:14:33;1.90;;;0.50;;
83814;SDS011;73829;53.826;-3.034;2024-02-15T04:17:06;1.10;;;0.40;;
83814;SDS011;73829;53.826;-3.034;2024-02-15T04:19:37;1.40;;;0.50;;
83814;SDS011;73829;53.826;-3.034;2024-02-15T04:22:08;1.50;;;0.50;;
83814;SDS011;73829;53.826;-3.034;2024-02-15T04:24:39;1.90;;;0.60;;
83814;SDS011;73829;53.826;-3.034;2024-02-15T04:27:10;1.30;;;0.50;;
83814;SDS011;73829;53.826;-3.034;2024-02-15T04:29:42;1.70;;;0.50;;
83814;SDS011;73829;53.826;-3.034;2024-02-15T04:32:14;1.70;;;0.50;;
83814;SDS011;73829;53.826;-3.034;2024-02-15T04:34:47;1.50;;;0.60;;
83814;SDS011;73829;53.826;-3.034;2024-02-15T04:37:19;2.00;;;0.60;;
83814;SDS011;73829;53.826;-3.034;2024-02-15T04:39:50;1.10;;;0.40;;
83814;SDS011;73829;53.826;-3.034;2024-02-15T04:42:21;1.10;;;0.50;;
83814;SDS011;73829;53.826;-3.034;2024-02-15T04:44:55;1.10;;;0.40;;
83814;SDS011;73829;53.826;-3.034;2024-02-15T04:47:26;1.70;;;0.50;;
83814;SDS011;73829;53.826;-3.034;2024-02-15T04:49:57;1.10;;;0.40;;
83814;SDS011;73829;53.826;-3.034;2024-02-15T04:52:29;1.50;;;0.40;;
83814;SDS011;73829;53.826;-3.034;2024-02-15T04:55:00;1.70;;;0.50;;
83814;SDS011;73829;53.826;-3.034;2024-02-15T04:57:33;1.80;;;0.50;;
83814;SDS011;73829;53.826;-3.034;2024-02-15T05:00:06;1.90;;;0.60;;
83814;SDS011;73829;53.826;-3.034;2024-02-15T05:02:41;1.70;;;0.50;;
83814;SDS011;73829;53.826;-3.034;2024-02-15T05:05:12;1.40;;;0.40;;
83814;SDS011;73829;53.826;-3.034;2024-02-15T05:07:43;1.40;;;0.50;;
83814;SDS011;73829;53.826;-3.034;2024-02-15T05:10:17;1.80;;;0.40;;
83814;SDS011;73829;53.826;-3.034;2024-02-15T05:12:48;1.20;;;0.50;;
83814;SDS011;73829;53.826;-3.034;2024-02-15T05:15:21;1.70;;;0.60;;
83814;SDS011;73829;53.826;-3.034;2024-02-15T05:17:53;1.20;;;0.40;;
83814;SDS011;73829;53.826;-3.034;2024-02-15T05:20:24;1.30;;;0.40;;
83814;SDS011;73829;53.826;-3.034;2024-02-15T05:22:55;1.70;;;0.50;;
83814;SDS011;73829;53.826;-3.034;2024-02-15T05:25:26;1.20;;;0.40;;
83814;SDS011;73829;53.826;-3.034;2024-02-15T05:28:00;0.90;;;0.40;;
83814;SDS011;73829;53.826;-3.034;2024-02-15T05:30:36;2.00;;;0.60;;
83814;SDS011;73829;53.826;-3.034;2024-02-15T05:33:07;1.20;;;0.40;;
83814;SDS011;73829;53.826;-3.034;2024-02-15T05:35:39;1.10;;;0.30;;
83814;SDS011;73829;53.826;-3.034;2024-02-15T05:38:14;1.30;;;0.40;;
83814;SDS011;73829;53.826;-3.034;2024-02-15T05:40:45;1.20;;;0.40;;
83814;SDS011;73829;53.826;-3.034;2024-02-15T05:43:16;0.80;;;0.40;;
83814;SDS011;73829;53.826;-3.034;2024-02-15T05:45:48;1.70;;;0.60;;
83814;SDS011;73829;53.826;-3.034;2024-02-15T05:48:20;1.90;;;0.50;;
83814;SDS011;73829;53.826;-3.034;2024-02-15T05:50:51;1.40;;;0.40;;
83814;SDS011;73829;53.826;-3.034;2024-02-15T05:53:23;1.20;;;0.40;;
83814;SDS011;73829;53.826;-3.034;2024-02-15T05:55:54;1.40;;;0.50;;
83814;SDS011;73829;53.826;-3.034;2024-02-15T05:58:26;1.90;;;0.50;;
83814;SDS011;73829;53.826;-3.034;2024-02-15T06:00:57;1.60;;;0.50;;
83814;SDS011;73829;53.826;-3.034;2024-02-15T06:03:30;1.60;;;0.50;;
83814;SDS011;73829;53.826;-3.034;2024-02-15T06:06:02;1.40;;;0.50;;
83814;SDS011;73829;53.826;-3.034;2024-02-15T06:08:34;1.70;;;0.40;;
83814;SDS011;73829;53.826;-3.034;2024-02-15T06:11:06;1.50;;;0.50;;
83814;SDS011;73829;53.826;-3.034;2024-02-15T06:13:38;1.70;;;0.50;;
83814;SDS011;73829;53.826;-3.034;2024-02-15T06:16:09;1.10;;;0.40;;
83814;SDS011;73829;53.826;-3.034;2024-02-15T06:18:40;1.10;;;0.40;;
83814;SDS011;73829;53.826;-3.034;2024-02-15T06:21:11;1.10;;;0.30;;
83814;SDS011;73829;53.826;-3.034;2024-02-15T06:23:42;1.70;;;0.70;;
83814;SDS011;73829;53.826;-3.034;2024-02-15T06:26:14;1.20;;;0.40;;
83814;SDS011;73829;53.826;-3.034;2024-02-15T06:28:46;1.20;;;0.40;;
83814;SDS011;73829;53.826;-3.034;2024-02-15T06:31:33;1.10;;;0.30;;
83814;SDS011;73829;53.826;-3.034;2024-02-15T06:34:22;0.90;;;0.30;;
83814;SDS011;73829;53.826;-3.034;2024-02-15T06:37:10;0.90;;;0.40;;
83814;SDS011;73829;53.826;-3.034;2024-02-15T06:40:19;1.60;;;0.40;;
83814;SDS011;73829;53.826;-3.034;2024-02-15T06:42:50;1.10;;;0.50;;
83814;SDS011;73829;53.826;-3.034;2024-02-15T06:45:21;1.40;;;0.30;;
83814;SDS011;73829;53.826;-3.034;2024-02-15T06:47:52;1.20;;;0.60;;
83814;SDS011;73829;53.826;-3.034;2024-02-15T06:50:24;1.20;;;0.40;;
83814;SDS011;73829;53.826;-3.034;2024-02-15T06:52:55;1.10;;;0.30;;
83814;SDS011;73829;53.826;-3.034;2024-02-15T06:55:26;1.40;;;0.30;;
83814;SDS011;73829;53.826;-3.034;2024-02-15T06:57:57;1.20;;;0.40;;
83814;SDS011;73829;53.826;-3.034;2024-02-15T07:00:28;1.20;;;0.30;;
83814;SDS011;73829;53.826;-3.034;2024-02-15T07:02:59;0.80;;;0.30;;
83814;SDS011;73829;53.826;-3.034;2024-02-15T07:05:32;1.40;;;0.40;;
83814;SDS011;73829;53.826;-3.034;2024-02-15T07:08:04;1.10;;;0.40;;
83814;SDS011;73829;53.826;-3.034;2024-02-15T07:10:38;1.00;;;0.30;;
83814;SDS011;73829;53.826;-3.034;2024-02-15T07:13:09;1.00;;;0.40;;
83814;SDS011;73829;53.826;-3.034;2024-02-15T07:15:40;1.20;;;0.30;;
83814;SDS011;73829;53.826;-3.034;2024-02-15T07:18:12;1.10;;;0.40;;
83814;SDS011;73829;53.826;-3.034;2024-02-15T07:20:46;0.90;;;0.20;;
83814;SDS011;73829;53.826;-3.034;2024-02-15T07:23:18;1.10;;;0.40;;
83814;SDS011;73829;53.826;-3.034;2024-02-15T07:25:49;1.60;;;0.40;;
83814;SDS011;73829;53.826;-3.034;2024-02-15T07:28:21;1.40;;;0.30;;
83814;SDS011;73829;53.826;-3.034;2024-02-15T07:30:54;1.30;;;0.40;;
83814;SDS011;73829;53.826;-3.034;2024-02-15T07:33:25;1.00;;;0.40;;
83814;SDS011;73829;53.826;-3.034;2024-02-15T07:35:56;1.00;;;0.30;;
83814;SDS011;73829;53.826;-3.034;2024-02-15T07:38:28;1.30;;;0.40;;
83814;SDS011;73829;53.826;-3.034;2024-02-15T07:41:02;0.90;;;0.30;;
83814;SDS011;73829;53.826;-3.034;2024-02-15T07:43:34;1.20;;;0.30;;
83814;SDS011;73829;53.826;-3.034;2024-02-15T07:46:05;0.80;;;0.30;;
83814;SDS011;73829;53.826;-3.034;2024-02-15T07:48:36;0.90;;;0.30;;
83814;SDS011;73829;53.826;-3.034;2024-02-15T07:51:12;1.80;;;0.40;;
83814;SDS011;73829;53.826;-3.034;2024-02-15T07:53:44;0.70;;;0.20;;
83814;SDS011;73829;53.826;-3.034;2024-02-15T07:56:16;1.20;;;0.40;;
83814;SDS011;73829;53.826;-3.034;2024-02-15T07:58:47;1.20;;;0.40;;
83814;SDS011;73829;53.826;-3.034;2024-02-15T08:01:20;1.50;;;0.50;;
83814;SDS011;73829;53.826;-3.034;2024-02-15T08:03:51;1.20;;;0.30;;
83814;SDS011;73829;53.826;-3.034;2024-02-15T08:06:22;0.90;;;0.30;;
83814;SDS011;73829;53.826;-3.034;2024-02-15T08:08:55;1.50;;;0.40;;
83814;SDS011;73829;53.826;-3.034;2024-02-15T08:11:27;1.20;;;0.40;;
83814;SDS011;73829;53.826;-3.034;2024-02-15T08:13:58;1.10;;;0.30;;
83814;SDS011;73829;53.826;-3.034;2024-02-15T08:16:29;0.50;;;0.20;;
83814;SDS011;73829;53.826;-3.034;2024-02-15T08:19:01;0.80;;;0.30;;
83814;SDS011;73829;53.826;-3.034;2024-02-15T08:21:34;1.30;;;0.30;;
83814;SDS011;73829;53.826;-3.034;2024-02-15T08:24:07;1.20;;;0.40;;
83814;SDS011;73829;53.826;-3.034;2024-02-15T08:26:38;0.40;;;0.20;;
83814;SDS011;73829;53.826;-3.034;2024-02-15T08:29:11;0.80;;;0.30;;
83814;SDS011;73829;53.826;-3.034;2024-02-15T08:31:42;1.00;;;0.30;;
83814;SDS011;73829;53.826;-3.034;2024-02-15T08:34:14;1.00;;;0.40;;
83814;SDS011;73829;53.826;-3.034;2024-02-15T08:36:46;1.60;;;0.50;;
83814;SDS011;73829;53.826;-3.034;2024-02-15T08:39:17;1.10;;;0.40;;
83814;SDS011;73829;53.826;-3.034;2024-02-15T08:41:51;0.70;;;0.40;;
83814;SDS011;73829;53.826;-3.034;2024-02-15T08:44:22;1.00;;;0.30;;
83814;SDS011;73829;53.826;-3.034;2024-02-15T08:46:53;1.20;;;0.30;;
83814;SDS011;73829;53.826;-3.034;2024-02-15T08:49:24;0.70;;;0.40;;
83814;SDS011;73829;53.826;-3.034;2024-02-15T08:51:58;1.00;;;0.30;;
83814;SDS011;73829;53.826;-3.034;2024-02-15T08:54:29;1.00;;;0.40;;
83814;SDS011;73829;53.826;-3.034;2024-02-15T08:57:00;0.80;;;0.30;;
83814;SDS011;73829;53.826;-3.034;2024-02-15T08:59:31;1.10;;;0.40;;
83814;SDS011;73829;53.826;-3.034;2024-02-15T09:02:03;0.90;;;0.30;;
83814;SDS011;73829;53.826;-3.034;2024-02-15T09:04:34;1.00;;;0.40;;
83814;SDS011;73829;53.826;-3.034;2024-02-15T09:07:06;0.80;;;0.20;;
83814;SDS011;73829;53.826;-3.034;2024-02-15T09:09:37;1.10;;;0.40;;
83814;SDS011;73829;53.826;-3.034;2024-02-15T09:12:08;0.70;;;0.30;;
83814;SDS011;73829;53.826;-3.034;2024-02-15T09:14:40;1.50;;;0.30;;
83814;SDS011;73829;53.826;-3.034;2024-02-15T09:17:11;1.10;;;0.40;;
83814;SDS011;73829;53.826;-3.034;2024-02-15T09:19:42;1.10;;;0.40;;
83814;SDS011;73829;53.826;-3.034;2024-02-15T09:22:17;0.40;;;0.20;;
83814;SDS011;73829;53.826;-3.034;2024-02-15T09:24:48;0.90;;;0.30;;
83814;SDS011;73829;53.826;-3.034;2024-02-15T09:27:19;0.90;;;0.20;;
83814;SDS011;73829;53.826;-3.034;2024-02-15T09:29:50;1.00;;;0.30;;
83814;SDS011;73829;53.826;-3.034;2024-02-15T09:32:23;0.60;;;0.20;;
83814;SDS011;73829;53.826;-3.034;2024-02-15T09:34:54;0.70;;;0.30;;
83814;SDS011;73829;53.826;-3.034;2024-02-15T09:37:26;0.90;;;0.30;;
83814;SDS011;73829;53.826;-3.034;2024-02-15T09:39:57;1.10;;;0.30;;
83814;SDS011;73829;53.826;-3.034;2024-02-15T09:42:33;1.00;;;0.30;;
83814;SDS011;73829;53.826;-3.034;2024-02-15T09:45:04;0.70;;;0.30;;
83814;SDS011;73829;53.826;-3.034;2024-02-15T09:47:38;0.80;;;0.20;;
83814;SDS011;73829;53.826;-3.034;2024-02-15T09:50:11;1.30;;;0.50;;
83814;SDS011;73829;53.826;-3.034;2024-02-15T09:52:45;0.80;;;0.30;;
83814;SDS011;73829;53.826;-3.034;2024-02-15T09:55:18;1.00;;;0.30;;
83814;SDS011;73829;53.826;-3.034;2024-02-15T09:57:51;2.10;;;0.30;;
83814;SDS011;73829;53.826;-3.034;2024-02-15T10:00:22;0.90;;;0.30;;
83814;SDS011;73829;53.826;-3.034;2024-02-15T10:02:54;0.70;;;0.30;;
83814;SDS011;73829;53.826;-3.034;2024-02-15T10:05:25;1.70;;;0.30;;
83814;SDS011;73829;53.826;-3.034;2024-02-15T10:07:57;2.20;;;0.40;;
83814;SDS011;73829;53.826;-3.034;2024-02-15T10:10:29;0.80;;;0.30;;
83814;SDS011;73829;53.826;-3.034;2024-02-15T10:13:01;1.70;;;0.30;;
83814;SDS011;73829;53.826;-3.034;2024-02-15T10:15:33;0.80;;;0.20;;
83814;SDS011;73829;53.826;-3.034;2024-02-15T10:18:06;0.60;;;0.20;;
83814;SDS011;73829;53.826;-3.034;2024-02-15T10:20:39;0.80;;;0.20;;
83814;SDS011;73829;53.826;-3.034;2024-02-15T10:23:12;0.80;;;0.20;;
83814;SDS011;73829;53.826;-3.034;2024-02-15T10:25:45;1.20;;;0.30;;
83814;SDS011;73829;53.826;-3.034;2024-02-15T10:28:20;0.70;;;0.20;;
83814;SDS011;73829;53.826;-3.034;2024-02-15T10:30:52;0.40;;;0.30;;
83814;SDS011;73829;53.826;-3.034;2024-02-15T10:33:27;0.70;;;0.20;;
83814;SDS011;73829;53.826;-3.034;2024-02-15T10:36:06;1.00;;;0.30;;
83814;SDS011;73829;53.826;-3.034;2024-02-15T10:38:39;0.70;;;0.20;;
83814;SDS011;73829;53.826;-3.034;2024-02-15T10:41:10;0.70;;;0.30;;
83814;SDS011;73829;53.826;-3.034;2024-02-15T10:43:41;0.90;;;0.40;;
83814;SDS011;73829;53.826;-3.034;2024-02-15T10:46:15;1.00;;;0.30;;
83814;SDS011;73829;53.826;-3.034;2024-02-15T10:48:47;0.80;;;0.20;;
83814;SDS011;73829;53.826;-3.034;2024-02-15T10:51:18;0.60;;;0.30;;
83814;SDS011;73829;53.826;-3.034;2024-02-15T10:53:55;1.80;;;0.30;;
83814;SDS011;73829;53.826;-3.034;2024-02-15T10:56:34;0.60;;;0.20;;
83814;SDS011;73829;53.826;-3.034;2024-02-15T10:59:14;1.50;;;0.40;;
83814;SDS011;73829;53.826;-3.034;2024-02-15T11:01:49;1.00;;;0.30;;
83814;SDS011;73829;53.826;-3.034;2024-02-15T11:04:23;0.90;;;0.30;;
83814;SDS011;73829;53.826;-3.034;2024-02-15T11:07:00;1.20;;;0.30;;
83814;SDS011;73829;53.826;-3.034;2024-02-15T11:09:34;0.80;;;0.30;;
83814;SDS011;73829;53.826;-3.034;2024-02-15T11:12:07;1.80;;;0.30;;
83814;SDS011;73829;53.826;-3.034;2024-02-15T11:14:40;1.10;;;0.30;;
83814;SDS011;73829;53.826;-3.034;2024-02-15T11:17:23;0.70;;;0.20;;
83814;SDS011;73829;53.826;-3.034;2024-02-15T11:23:27;1.50;;;0.50;;
83814;SDS011;73829;53.826;-3.034;2024-02-15T11:25:58;0.80;;;0.30;;
83814;SDS011;73829;53.826;-3.034;2024-02-15T11:34:43;1.00;;;0.30;;
83814;SDS011;73829;53.826;-3.034;2024-02-15T11:43:49;1.30;;;0.40;;
83814;SDS011;73829;53.826;-3.034;2024-02-15T11:48:57;1.20;;;0.40;;
83814;SDS011;73829;53.826;-3.034;2024-02-15T11:51:29;1.00;;;0.40;;
83814;SDS011;73829;53.826;-3.034;2024-02-15T11:54:05;1.10;;;0.30;;
83814;SDS011;73829;53.826;-3.034;2024-02-15T11:59:41;2.10;;;0.50;;
83814;SDS011;73829;53.826;-3.034;2024-02-15T12:02:21;1.10;;;0.40;;
83814;SDS011;73829;53.826;-3.034;2024-02-15T12:05:10;1.30;;;0.50;;
83814;SDS011;73829;53.826;-3.034;2024-02-15T12:07:56;1.10;;;0.30;;
83814;SDS011;73829;53.826;-3.034;2024-02-15T12:10:56;1.00;;;0.30;;
83814;SDS011;73829;53.826;-3.034;2024-02-15T12:13:44;1.00;;;0.30;;
83814;SDS011;73829;53.826;-3.034;2024-02-15T12:16:38;0.60;;;0.20;;
83814;SDS011;73829;53.826;-3.034;2024-02-15T12:19:26;1.60;;;0.40;;
83814;SDS011;73829;53.826;-3.034;2024-02-15T12:21:58;0.90;;;0.30;;
83814;SDS011;73829;53.826;-3.034;2024-02-15T12:24:30;0.90;;;0.30;;
83814;SDS011;73829;53.826;-3.034;2024-02-15T12:27:01;1.50;;;0.40;;
83814;SDS011;73829;53.826;-3.034;2024-02-15T12:29:33;1.60;;;0.50;;
83814;SDS011;73829;53.826;-3.034;2024-02-15T12:32:04;0.60;;;0.20;;
83814;SDS011;73829;53.826;-3.034;2024-02-15T12:34:35;1.10;;;0.40;;
83814;SDS011;73829;53.826;-3.034;2024-02-15T12:37:07;1.60;;;0.50;;
83814;SDS011;73829;53.826;-3.034;2024-02-15T12:39:38;1.30;;;0.30;;
83814;SDS011;73829;53.826;-3.034;2024-02-15T12:42:09;1.40;;;0.40;;
83814;SDS011;73829;53.826;-3.034;2024-02-15T12:44:42;0.70;;;0.20;;
83814;SDS011;73829;53.826;-3.034;2024-02-15T12:47:21;0.40;;;0.30;;
83814;SDS011;73829;53.826;-3.034;2024-02-15T12:49:53;1.70;;;0.50;;
83814;SDS011;73829;53.826;-3.034;2024-02-15T12:52:39;0.50;;;0.20;;
83814;SDS011;73829;53.826;-3.034;2024-02-15T12:55:12;0.50;;;0.20;;
83814;SDS011;73829;53.826;-3.034;2024-02-15T12:57:45;1.20;;;0.40;;
83814;SDS011;73829;53.826;-3.034;2024-02-15T13:00:19;1.90;;;0.50;;
83814;SDS011;73829;53.826;-3.034;2024-02-15T13:02:56;0.80;;;0.30;;
83814;SDS011;73829;53.826;-3.034;2024-02-15T13:05:28;1.30;;;0.50;;
83814;SDS011;73829;53.826;-3.034;2024-02-15T13:07:59;1.20;;;0.40;;
83814;SDS011;73829;53.826;-3.034;2024-02-15T13:10:33;1.30;;;0.50;;
83814;SDS011;73829;53.826;-3.034;2024-02-15T13:13:06;1.20;;;0.40;;
83814;SDS011;73829;53.826;-3.034;2024-02-15T13:15:38;1.10;;;0.50;;
83814;SDS011;73829;53.826;-3.034;2024-02-15T13:18:09;1.90;;;0.50;;
83814;SDS011;73829;53.826;-3.034;2024-02-15T13:20:41;1.80;;;0.50;;
83814;SDS011;73829;53.826;-3.034;2024-02-15T13:23:12;0.80;;;0.30;;
83814;SDS011;73829;53.826;-3.034;2024-02-15T13:25:50;1.30;;;0.40;;
83814;SDS011;73829;53.826;-3.034;2024-02-15T13:28:22;1.30;;;0.30;;
83814;SDS011;73829;53.826;-3.034;2024-02-15T13:30:53;1.00;;;0.40;;
83814;SDS011;73829;53.826;-3.034;2024-02-15T13:33:24;0.80;;;0.30;;
83814;SDS011;73829;53.826;-3.034;2024-02-15T13:35:59;0.80;;;0.40;;
83814;SDS011;73829;53.826;-3.034;2024-02-15T13:38:31;1.30;;;0.50;;
83814;SDS011;73829;53.826;-3.034;2024-02-15T13:41:04;1.40;;;0.40;;
83814;SDS011;73829;53.826;-3.034;2024-02-15T13:43:36;1.40;;;0.40;;
83814;SDS011;73829;53.826;-3.034;2024-02-15T13:46:09;1.20;;;0.40;;
83814;SDS011;73829;53.826;-3.034;2024-02-15T13:48:40;1.50;;;0.40;;
83814;SDS011;73829;53.826;-3.034;2024-02-15T13:51:11;1.10;;;0.30;;
83814;SDS011;73829;53.826;-3.034;2024-02-15T13:53:42;1.60;;;0.30;;
83814;SDS011;73829;53.826;-3.034;2024-02-15T13:56:13;1.70;;;0.50;;
83814;SDS011;73829;53.826;-3.034;2024-02-15T13:58:45;1.20;;;0.40;;
83814;SDS011;73829;53.826;-3.034;2024-02-15T14:01:16;0.60;;;0.30;;
83814;SDS011;73829;53.826;-3.034;2024-02-15T14:03:47;1.20;;;0.40;;
83814;SDS011;73829;53.826;-3.034;2024-02-15T14:06:18;1.50;;;0.60;;
83814;SDS011;73829;53.826;-3.034;2024-02-15T14:11:19;1.30;;;0.40;;
83814;SDS011;73829;53.826;-3.034;2024-02-15T14:13:50;2.40;;;0.70;;
83814;SDS011;73829;53.826;-3.034;2024-02-15T14:16:26;1.20;;;0.30;;
83814;SDS011;73829;53.826;-3.034;2024-02-15T14:18:57;1.10;;;0.40;;
83814;SDS011;73829;53.826;-3.034;2024-02-15T14:21:31;1.90;;;0.60;;
83814;SDS011;73829;53.826;-3.034;2024-02-15T14:24:07;2.10;;;0.70;;
83814;SDS011;73829;53.826;-3.034;2024-02-15T14:26:38;1.80;;;0.40;;
83814;SDS011;73829;53.826;-3.034;2024-02-15T14:29:09;2.60;;;0.90;;
83814;SDS011;73829;53.826;-3.034;2024-02-15T14:31:42;1.60;;;0.50;;
83814;SDS011;73829;53.826;-3.034;2024-02-15T14:34:30;1.30;;;0.40;;
83814;SDS011;73829;53.826;-3.034;2024-02-15T14:37:04;1.70;;;0.60;;
83814;SDS011;73829;53.826;-3.034;2024-02-15T14:39:35;1.10;;;0.40;;
83814;SDS011;73829;53.826;-3.034;2024-02-15T14:42:06;2.20;;;0.50;;
83814;SDS011;73829;53.826;-3.034;2024-02-15T14:44:40;1.40;;;0.40;;
83814;SDS011;73829;53.826;-3.034;2024-02-15T14:47:11;1.80;;;0.60;;
83814;SDS011;73829;53.826;-3.034;2024-02-15T14:49:43;1.90;;;0.50;;
83814;SDS011;73829;53.826;-3.034;2024-02-15T14:52:14;1.30;;;0.50;;
83814;SDS011;73829;53.826;-3.034;2024-02-15T14:54:46;1.40;;;0.40;;
83814;SDS011;73829;53.826;-3.034;2024-02-15T14:57:17;1.30;;;0.40;;
83814;SDS011;73829;53.826;-3.034;2024-02-15T14:59:48;1.40;;;0.50;;
83814;SDS011;73829;53.826;-3.034;2024-02-15T15:02:18;2.10;;;0.50;;
83814;SDS011;73829;53.826;-3.034;2024-02-15T15:04:50;1.60;;;0.30;;
83814;SDS011;73829;53.826;-3.034;2024-02-15T15:07:46;1.60;;;0.60;;
83814;SDS011;73829;53.826;-3.034;2024-02-15T15:10:34;1.60;;;0.50;;
83814;SDS011;73829;53.826;-3.034;2024-02-15T15:13:23;1.40;;;0.50;;
83814;SDS011;73829;53.826;-3.034;2024-02-15T15:15:54;0.80;;;0.40;;
83814;SDS011;73829;53.826;-3.034;2024-02-15T15:18:25;1.40;;;0.40;;
83814;SDS011;73829;53.826;-3.034;2024-02-15T15:20:56;2.60;;;0.70;;
83814;SDS011;73829;53.826;-3.034;2024-02-15T15:23:27;1.70;;;0.60;;
83814;SDS011;73829;53.826;-3.034;2024-02-15T15:25:59;2.10;;;0.70;;
83814;SDS011;73829;53.826;-3.034;2024-02-15T15:28:30;2.40;;;0.50;;
83814;SDS011;73829;53.826;-3.034;2024-02-15T15:31:01;1.70;;;0.50;;